Loop, Texas
Current Conditions -  °F | °C
As of 7:15 PM on Friday 31 Oct 2014 (Local Time) from KGNC Reporting Station
Clear Clear  
Wind Chill: 57°   Ceiling: Unl
Heat Index: 57°   Visibility: 10mi
Dew Point: 34°   Wind: 6mph
Humidity: 43%   Direction: 120°ESE
Pressure: 30.34"   Gusts: NA
Location:  32.92°N, 102.42°W
Report Text: KGNC 010015Z AUTO 12005KT 10SM CLR 14/01 A3034 RMK AO2 T01370012
Loading
Personal Weather Stations






























Interactive Weather Map
Tropical Storm Tracking
New forecast layout! Learn more

10-Day Weather Forecast

Advertisements
Track Severe Weather on mobile